Time;durP1;ratioP1;P1;durP2;ratioP2;P2;SDS_P1;SDS_P2;PMS_P1;PMS_P2;Temp;Humidity;BMP_temperature;BMP_pressure;BME280_temperature;BME280_humidity;BME280_pressure;Samples;Min_cycle;Max_cycle;Signal;HPM_P1;HPM_P2
2022/10/18 00:00:52;;;;;;;0.85;0.85;;;;;;;10.33;78.20;100668.31;4486727;32;33243;-69
2022/10/18 00:03:20;;;;;;;1.27;1.23;;;;;;;10.28;77.92;100664.75;4484954;32;33948;-68
2022/10/18 00:05:48;;;;;;;0.93;0.93;;;;;;;10.21;78.47;100661.19;4486620;32;34947;-69
2022/10/18 00:08:17;;;;;;;2.83;2.37;;;;;;;10.38;77.73;100659.69;4486562;32;35273;-69
2022/10/18 00:10:45;;;;;;;1.35;1.30;;;;;;;10.42;77.50;100661.47;4486521;32;33062;-68
2022/10/18 00:13:13;;;;;;;2.97;1.58;;;;;;;10.23;77.95;100657.75;4485487;32;33927;-69
2022/10/18 00:16:13;;;;;;;1.23;1.23;;;;;;;10.34;77.94;100660.53;4486466;32;34999;-69
2022/10/18 00:18:42;;;;;;;0.88;0.88;;;;;;;9.67;81.47;100657.87;4485368;32;34447;-69
2022/10/18 00:21:15;;;;;;;0.80;0.80;;;;;;;9.92;81.40;100648.72;4486622;32;33822;-69
2022/10/18 00:23:44;;;;;;;0.70;0.70;;;;;;;9.48;85.29;100656.75;4486496;32;33792;-69
2022/10/18 00:26:23;;;;;;;2.05;1.87;;;;;;;10.31;81.21;100643.97;4486441;32;34638;-69
2022/10/18 00:28:59;;;;;;;1.15;1.00;;;;;;;10.20;81.00;100652.53;4486174;32;34533;-69
2022/10/18 00:31:29;;;;;;;2.05;1.85;;;;;;;10.15;81.32;100650.72;4486392;32;33489;-69
2022/10/18 00:34:00;;;;;;;1.55;1.45;;;;;;;10.07;80.83;100651.47;4486415;32;33905;-69
2022/10/18 00:36:30;;;;;;;1.67;1.55;;;;;;;9.96;82.55;100645.28;4486681;32;35081;-69
2022/10/18 00:38:59;;;;;;;0.93;0.93;;;;;;;10.10;82.42;100644.59;4486666;32;35138;-69
2022/10/18 00:41:30;;;;;;;0.80;0.80;;;;;;;10.54;79.23;100645.12;4486469;32;34185;-69
2022/10/18 00:44:05;;;;;;;1.45;1.35;;;;;;;10.58;78.33;100643.41;4486345;32;33200;-69
2022/10/18 00:46:35;;;;;;;1.73;1.62;;;;;;;10.48;78.17;100638.97;4486367;32;35038;-69
2022/10/18 00:49:10;;;;;;;1.20;1.05;;;;;;;10.23;80.36;100649.06;4486241;32;34604;-69
2022/10/18 00:51:44;;;;;;;0.82;0.82;;;;;;;10.47;78.77;100632.88;4485276;32;34343;-69
2022/10/18 00:54:12;;;;;;;1.17;1.08;;;;;;;10.53;77.72;100637.28;4485171;32;34026;-68
2022/10/18 00:56:43;;;;;;;1.62;1.52;;;;;;;10.22;78.33;100632.59;4486544;32;35832;-69
2022/10/18 00:59:13;;;;;;;1.73;1.62;;;;;;;9.92;79.96;100627.88;4485100;32;33510;-69
2022/10/18 01:01:41;;;;;;;1.55;1.48;;;;;;;10.28;78.36;100621.38;4486361;32;32611;-69
2022/10/18 01:04:10;;;;;;;1.92;1.58;;;;;;;10.10;80.39;100626.38;4486318;32;34092;-69
2022/10/18 01:06:51;;;;;;;3.30;3.00;;;;;;;10.07;79.36;100627.19;4486358;32;35907;-69
2022/10/18 01:09:24;;;;;;;1.35;1.35;;;;;;;9.99;79.70;100621.91;4486425;32;35299;-69
2022/10/18 01:12:19;;;;;;;1.02;1.02;;;;;;;9.78;80.90;100619.91;4486193;32;33741;-68
2022/10/18 01:15:03;;;;;;;1.40;1.23;;;;;;;10.00;80.09;100613.22;4485051;32;34067;-69
2022/10/18 01:17:37;;;;;;;2.00;1.90;;;;;;;9.06;83.68;100617.13;4485012;32;35045;-69
2022/10/18 01:20:36;;;;;;;1.55;1.45;;;;;;;9.60;82.42;100610.13;4486126;32;34449;-69
2022/10/18 01:23:03;;;;;;;1.52;1.42;;;;;;;10.26;79.20;100604.84;4485102;32;33523;-69
2022/10/18 01:26:01;;;;;;;1.77;1.67;;;;;;;10.28;78.01;100604.88;4485980;32;33940;-69
2022/10/18 01:28:51;;;;;;;0.57;0.57;;;;;;;10.33;77.49;100598.03;4430078;31;35898;-69
2022/10/18 01:31:25;;;;;;;0.98;0.98;;;;;;;10.02;78.63;100593.31;4485976;32;34447;-69
2022/10/18 01:33:57;;;;;;;1.55;1.45;;;;;;;9.94;78.38;100597.56;4484939;32;33663;-69
2022/10/18 01:36:33;;;;;;;1.02;0.93;;;;;;;9.57;82.05;100594.47;4484819;32;34021;-68
2022/10/18 01:39:06;;;;;;;3.70;1.62;;;;;;;9.94;80.95;100600.16;4484848;32;35154;-69
2022/10/18 01:41:36;;;;;;;1.33;1.12;;;;;;;10.11;79.44;100586.47;4485095;32;35202;-69
2022/10/18 01:44:06;;;;;;;1.55;1.45;;;;;;;9.58;81.33;100591.03;4484805;32;33428;-69
2022/10/18 01:46:34;;;;;;;5.10;3.12;;;;;;;9.34;82.62;100590.69;4485965;32;33182;-69
2022/10/18 01:49:03;;;;;;;0.68;0.68;;;;;;;9.39;81.43;100594.22;4485864;32;35966;-68
2022/10/18 01:51:32;;;;;;;0.90;0.90;;;;;;;9.70;81.99;100585.09;4484628;32;35246;-69
2022/10/18 01:54:00;;;;;;;2.83;2.08;;;;;;;10.24;77.80;100573.59;4485825;32;34269;-69
2022/10/18 01:56:38;;;;;;;2.00;1.90;;;;;;;10.22;77.18;100579.66;4485716;32;33982;-69
2022/10/18 01:59:43;;;;;;;1.00;1.00;;;;;;;10.19;77.02;100577.03;4485755;32;35050;-69
2022/10/18 02:02:38;;;;;;;0.50;0.50;;;;;;;9.83;79.79;100576.63;4485737;32;35254;-68
2022/10/18 02:05:09;;;;;;;0.77;0.77;;;;;;;9.96;78.80;100566.34;4477814;32;33645;-69
2022/10/18 02:07:39;;;;;;;2.40;2.20;;;;;;;9.61;81.92;100565.06;4485981;32;34143;-69
2022/10/18 02:10:13;;;;;;;2.35;2.15;;;;;;;9.77;82.12;100565.25;4485633;32;35015;-69
2022/10/18 02:12:47;;;;;;;0.98;0.98;;;;;;;9.87;81.49;100556.72;4485613;32;35219;-69
2022/10/18 02:15:20;;;;;;;1.23;1.15;;;;;;;10.09;80.02;100557.81;4484378;32;33302;-69
2022/10/18 02:17:49;;;;;;;1.15;1.15;;;;;;;9.88;82.70;100561.03;4484424;32;34707;-69
2022/10/18 02:20:20;;;;;;;1.25;1.25;;;;;;;9.87;82.95;100560.19;4485510;32;35746;-69
2022/10/18 02:22:50;;;;;;;5.07;1.83;;;;;;;9.99;82.63;100564.66;4485552;32;35079;-69
2022/10/18 02:25:23;;;;;;;1.73;1.62;;;;;;;9.60;84.10;100563.31;4484206;32;35477;-69
2022/10/18 02:27:54;;;;;;;0.88;0.88;;;;;;;9.62;83.84;100560.75;4484299;32;33938;-69
2022/10/18 02:30:45;;;;;;;0.88;0.88;;;;;;;10.06;81.46;100560.41;4485258;32;35022;-69
2022/10/18 02:33:21;;;;;;;2.30;2.10;;;;;;;10.09;81.91;100562.16;4485341;32;35212;-69
2022/10/18 02:35:51;;;;;;;;;;;;;;;10.31;79.27;100564.16;4485644;32;33551;-69
2022/10/18 02:38:19;;;;;;;3.15;2.85;;;;;;;10.46;78.27;100571.25;4484273;32;34315;-69
2022/10/18 02:40:47;;;;;;;1.20;1.02;;;;;;;9.94;80.04;100570.69;4484005;32;35112;-69
2022/10/18 02:43:15;;;;;;;1.23;1.17;;;;;;;10.09;80.31;100567.34;4485261;32;35020;-69
2022/10/18 02:45:43;;;;;;;3.35;3.05;;;;;;;10.31;79.06;100569.37;4485312;32;33510;-69
2022/10/18 02:48:11;;;;;;;0.88;0.88;;;;;;;9.84;82.22;100560.13;4484047;32;34596;-69
2022/10/18 02:50:39;;;;;;;1.08;1.08;;;;;;;10.42;77.53;100567.72;4485196;32;35073;-69
2022/10/18 02:53:06;;;;;;;1.05;1.05;;;;;;;9.57;80.66;100565.00;4484945;32;35283;-69
2022/10/18 02:55:34;;;;;;;0.98;0.98;;;;;;;9.32;81.19;100569.88;4485084;32;33724;-69
2022/10/18 02:58:03;;;;;;;5.80;3.42;;;;;;;9.97;78.25;100570.69;4485048;32;34045;-69
2022/10/18 03:00:30;;;;;;;2.28;2.12;;;;;;;10.32;76.52;100567.62;4484938;32;35184;-68
2022/10/18 03:02:58;;;;;;;4.40;2.40;;;;;;;9.98;78.19;100560.31;4484903;32;34495;-69
2022/10/18 03:05:26;;;;;;;1.67;1.48;;;;;;;9.50;81.23;100571.84;4484890;32;33662;-69
2022/10/18 03:07:57;;;;;;;1.60;1.27;;;;;;;9.96;79.98;100567.22;4484940;32;34013;-69
2022/10/18 03:10:25;;;;;;;0.60;0.60;;;;;;;10.02;78.44;100569.91;4484902;32;35982;-69
2022/10/18 03:12:53;;;;;;;1.40;1.30;;;;;;;9.07;81.59;100571.22;4484676;32;34598;-69
2022/10/18 03:15:21;;;;;;;2.15;1.85;;;;;;;9.09;81.88;100572.16;4484864;32;33198;-69
2022/10/18 03:17:49;;;;;;;1.35;1.25;;;;;;;8.84;82.61;100576.97;4484669;32;33785;-69
2022/10/18 03:20:18;;;;;;;1.15;1.15;;;;;;;9.22;81.69;100576.66;4484827;32;35942;-69
2022/10/18 03:22:46;;;;;;;1.70;1.60;;;;;;;9.84;78.55;100569.69;4484518;32;34507;-69
2022/10/18 03:25:14;;;;;;;1.65;1.55;;;;;;;10.00;76.34;100574.19;4484715;32;33597;-69
2022/10/18 03:27:43;;;;;;;1.60;1.50;;;;;;;9.82;76.12;100584.41;4484625;32;34803;-69
2022/10/18 03:30:12;;;;;;;1.33;1.30;;;;;;;9.31;77.98;100588.91;4484489;32;34911;-69
2022/10/18 03:32:40;;;;;;;1.67;1.58;;;;;;;9.21;79.50;100585.31;4484408;32;35217;-69
2022/10/18 03:35:08;;;;;;;2.50;2.35;;;;;;;8.64;84.05;100584.41;4484490;32;33473;-69
2022/10/18 03:37:36;;;;;;;1.37;1.27;;;;;;;9.56;78.74;100577.13;4484568;32;33931;-69
2022/10/18 03:40:05;;;;;;;2.42;1.70;;;;;;;9.58;77.42;100583.25;4486760;32;35825;-69
2022/10/18 03:42:33;;;;;;;1.33;1.25;;;;;;;9.44;78.43;100577.84;4486757;32;34444;-68
2022/10/18 03:45:01;;;;;;;1.15;1.15;;;;;;;9.14;80.36;100572.19;4486760;32;34454;-69
2022/10/18 03:47:29;;;;;;;1.62;1.40;;;;;;;9.14;80.86;100580.88;4486849;32;34859;-69
2022/10/18 03:49:57;;;;;;;1.02;1.00;;;;;;;8.96;81.09;100589.25;4486642;32;35120;-69
2022/10/18 03:52:26;;;;;;;1.80;1.70;;;;;;;9.62;78.57;100592.81;4484522;31;34151;-66
2022/10/18 03:54:55;;;;;;;2.65;1.73;;;;;;;8.92;80.85;100584.88;4486853;31;34050;-67
2022/10/18 03:57:23;;;;;;;1.25;1.17;;;;;;;9.19;81.27;100592.19;4489068;31;34769;-66
2022/10/18 03:59:51;;;;;;;5.93;2.80;;;;;;;9.48;78.58;100595.22;4496075;31;34988;-68
2022/10/18 04:02:19;;;;;;;3.62;2.42;;;;;;;9.86;75.68;100591.38;4494875;31;34363;-70
2022/10/18 04:04:48;;;;;;;3.37;2.17;;;;;;;9.88;75.77;100592.25;4490169;31;34366;-71
2022/10/18 04:07:16;;;;;;;1.35;1.25;;;;;;;9.60;77.53;100584.12;4499029;31;34162;-72
2022/10/18 04:09:43;;;;;;;4.47;2.95;;;;;;;9.62;78.02;100585.03;4491207;31;35910;-71
2022/10/18 04:12:12;;;;;;;0.80;0.80;;;;;;;9.71;77.88;100586.00;4493563;31;34739;-71
2022/10/18 04:14:39;;;;;;;1.45;1.35;;;;;;;9.44;78.66;100587.34;4497552;31;34448;-67
2022/10/18 04:17:07;;;;;;;0.68;0.68;;;;;;;9.56;78.35;100582.31;4488641;31;34754;-67
2022/10/18 04:19:36;;;;;;;1.95;1.85;;;;;;;9.39;80.91;100591.62;4497895;31;35310;-67
2022/10/18 04:22:04;;;;;;;2.33;1.85;;;;;;;9.33;81.31;100578.53;4493300;31;34525;-71
2022/10/18 04:24:31;;;;;;;1.70;1.05;;;;;;;9.38;79.30;100582.09;4491768;31;33492;-70
2022/10/18 04:27:00;;;;;;;2.12;1.95;;;;;;;9.10;81.85;100584.28;4499083;31;33313;-70
2022/10/18 04:29:27;;;;;;;0.95;0.95;;;;;;;8.93;81.25;100581.44;4489036;31;34999;-66
2022/10/18 04:31:55;;;;;;;1.65;0.95;;;;;;;9.32;80.20;100576.78;4495369;31;35175;-66
2022/10/18 04:34:23;;;;;;;3.78;2.45;;;;;;;9.65;77.37;100576.37;4495220;31;33674;-70
2022/10/18 04:36:51;;;;;;;0.50;0.50;;;;;;;9.80;77.02;100560.09;4489257;31;33943;-68
2022/10/18 04:39:19;;;;;;;1.35;1.25;;;;;;;9.15;79.67;100568.75;4501819;31;34816;-68
2022/10/18 04:41:47;;;;;;;2.25;2.05;;;;;;;9.56;76.83;100571.91;4502225;31;35258;-68
2022/10/18 04:44:15;;;;;;;0.93;0.93;;;;;;;8.87;80.80;100573.53;4502057;31;34235;-68
2022/10/18 04:46:43;;;;;;;2.08;1.95;;;;;;;9.35;79.18;100564.69;4502159;31;33804;-68
2022/10/18 04:49:11;;;;;;;1.70;1.60;;;;;;;9.42;78.06;100557.88;4500481;31;35130;-68
2022/10/18 04:51:39;;;;;;;1.80;1.58;;;;;;;9.27;79.75;100556.81;4502142;31;34680;-68
2022/10/18 04:54:07;;;;;;;0.95;0.95;;;;;;;8.89;81.79;100551.94;4502057;31;33376;-68
2022/10/18 04:56:35;;;;;;;0.90;0.90;;;;;;;9.41;80.58;100551.81;4502093;31;34599;-68
2022/10/18 04:59:03;;;;;;;0.93;0.93;;;;;;;9.58;80.62;100551.16;4502077;31;35939;-68
2022/10/18 05:01:31;;;;;;;2.90;2.67;;;;;;;9.06;82.95;100551.31;4492708;31;34500;-71
2022/10/18 05:03:59;;;;;;;1.40;1.30;;;;;;;9.40;82.97;100546.59;4490520;31;34261;-71
2022/10/18 05:06:27;;;;;;;2.05;1.95;;;;;;;9.07;84.45;100546.13;4493612;31;33911;-69
2022/10/18 05:08:55;;;;;;;1.58;1.48;;;;;;;8.82;85.12;100544.88;4496538;31;35143;-68
2022/10/18 05:11:23;;;;;;;4.05;3.62;;;;;;;8.88;84.82;100550.16;4488266;31;34131;-70
2022/10/18 05:13:51;;;;;;;1.80;1.70;;;;;;;9.26;83.72;100546.38;4497556;31;33572;-70
2022/10/18 05:16:19;;;;;;;1.05;1.05;;;;;;;9.69;81.26;100539.16;4492637;31;34672;-68
2022/10/18 05:18:47;;;;;;;3.10;2.62;;;;;;;9.32;80.71;100546.50;4491333;31;35047;-69
2022/10/18 05:21:15;;;;;;;0.77;0.77;;;;;;;8.99;82.25;100552.06;4498604;31;34609;-67
2022/10/18 05:23:43;;;;;;;2.08;1.95;;;;;;;9.68;79.81;100543.47;4488744;31;33630;-67
2022/10/18 05:26:11;;;;;;;1.12;1.12;;;;;;;10.14;76.50;100556.13;4495255;31;33928;-67
2022/10/18 05:28:39;;;;;;;1.55;1.45;;;;;;;10.05;76.00;100551.69;4494243;31;35018;-67
2022/10/18 05:31:10;;;;;;;0.57;0.57;;;;;;;9.74;77.77;100547.00;4489068;31;35217;-68
2022/10/18 05:33:38;;;;;;;2.50;1.70;;;;;;;9.87;78.24;100549.78;4498432;31;32588;-66
2022/10/18 05:36:06;;;;;;;1.92;1.55;;;;;;;9.63;78.73;100549.47;4491197;31;34756;-68
2022/10/18 05:38:37;;;;;;;1.98;1.85;;;;;;;9.18;80.20;100551.50;4492556;31;35946;-67
2022/10/18 05:41:06;;;;;;;2.53;2.33;;;;;;;9.39;81.06;100548.31;4497606;31;34643;-66
2022/10/18 05:43:34;;;;;;;1.62;1.52;;;;;;;9.37;80.05;100549.13;4488120;31;33658;-67
2022/10/18 05:46:03;;;;;;;0.80;0.80;;;;;;;9.02;83.33;100546.94;4496008;31;34015;-67
2022/10/18 05:48:32;;;;;;;3.72;1.73;;;;;;;9.09;84.64;100556.56;4493646;31;35028;-67
2022/10/18 05:51:00;;;;;;;4.30;2.90;;;;;;;9.32;84.25;100548.19;4489954;31;34266;-70
2022/10/18 05:53:28;;;;;;;2.28;1.73;;;;;;;9.92;83.68;100549.84;4497060;31;33439;-67
2022/10/18 05:56:05;;;;;;;3.40;2.40;;;;;;;9.78;84.83;100560.06;4490760;31;34058;-67
2022/10/18 05:58:33;;;;;;;1.55;1.45;;;;;;;10.04;85.14;100549.97;4491394;31;35970;-67
2022/10/18 06:01:02;;;;;;;1.60;1.50;;;;;;;10.30;85.49;100551.97;4496010;31;34348;-67
2022/10/18 06:03:31;;;;;;;1.55;1.45;;;;;;;10.80;84.87;100554.19;4487918;31;34196;-70
2022/10/18 06:06:03;;;;;;;0.88;0.88;;;;;;;11.80;87.33;100556.47;4496134;31;34916;-66
2022/10/18 06:08:31;;;;;;;1.83;1.73;;;;;;;13.42;76.55;100551.41;4493309;31;34646;-67
2022/10/18 06:10:59;;;;;;;3.00;2.80;;;;;;;13.70;74.70;100548.69;4489723;31;34383;-69
2022/10/18 06:13:27;;;;;;;4.20;3.28;;;;;;;13.58;73.71;100549.63;4498064;31;34479;-69
2022/10/18 06:15:59;;;;;;;4.45;3.65;;;;;;;13.23;74.09;100556.63;4492815;31;34824;-70
2022/10/18 06:18:28;;;;;;;3.28;2.97;;;;;;;12.97;74.42;100558.44;4492777;31;35919;-69
2022/10/18 06:20:58;;;;;;;1.80;1.70;;;;;;;13.03;74.49;100554.06;4501007;31;34733;-70
2022/10/18 06:23:27;;;;;;;3.60;3.30;;;;;;;12.92;75.24;100561.06;4487784;31;34266;-70
2022/10/18 06:26:03;;;;;;;1.95;1.85;;;;;;;12.92;75.98;100562.78;4496473;31;34045;-70
2022/10/18 06:28:33;;;;;;;1.17;1.17;;;;;;;13.21;74.92;100571.47;4492965;31;34710;-68
2022/10/18 06:31:02;;;;;;;1.95;1.85;;;;;;;13.33;75.20;100570.62;4488987;31;34438;-70
2022/10/18 06:33:32;;;;;;;2.85;2.65;;;;;;;13.51;74.77;100568.81;4497676;31;33559;-67
2022/10/18 06:36:05;;;;;;;1.67;1.10;;;;;;;13.56;73.94;100569.69;4489787;31;33948;-70
2022/10/18 06:38:34;;;;;;;1.52;1.42;;;;;;;13.86;72.93;100562.59;4492086;31;34996;-69
2022/10/18 06:41:03;;;;;;;1.12;1.12;;;;;;;13.70;72.38;100570.50;4496387;31;35191;-70
2022/10/18 06:43:34;;;;;;;1.87;1.52;;;;;;;13.93;71.76;100566.91;4487435;31;33456;-69
2022/10/18 06:46:05;;;;;;;1.58;1.48;;;;;;;14.08;70.39;100565.97;4495403;31;34019;-70
2022/10/18 06:48:37;;;;;;;3.17;2.53;;;;;;;14.35;69.78;100567.56;4493293;31;35253;-70
2022/10/18 06:51:07;;;;;;;12.10;2.10;;;;;;;14.17;70.78;100571.12;4488400;31;34650;-71
2022/10/18 06:53:37;;;;;;;3.25;2.28;;;;;;;14.52;69.10;100573.53;4497478;31;34407;-70
2022/10/18 06:56:16;;;;;;;1.33;1.23;;;;;;;14.40;69.11;100573.66;4491223;31;34848;-70
2022/10/18 06:58:44;;;;;;;8.68;2.47;;;;;;;14.29;69.08;100581.56;4490500;31;35196;-69
2022/10/18 07:01:15;;;;;;;3.47;2.65;;;;;;;14.49;68.85;100575.31;4497244;31;34496;-70
2022/10/18 07:03:44;;;;;;;2.67;2.47;;;;;;;14.56;68.52;100579.66;4487970;31;32927;-71
2022/10/18 07:06:15;;;;;;;1.60;1.48;;;;;;;14.56;68.81;100584.91;4493937;31;34830;-69
2022/10/18 07:08:43;;;;;;;1.67;1.58;;;;;;;15.09;65.08;100581.00;4493778;31;36102;-70
2022/10/18 07:11:15;;;;;;;1.40;1.30;;;;;;;14.86;66.49;100589.06;4487499;31;35268;-71
2022/10/18 07:13:43;;;;;;;1.80;1.62;;;;;;;15.41;65.40;100582.41;4488596;31;33310;-68
2022/10/18 07:16:14;;;;;;;2.80;2.22;;;;;;;15.39;65.18;100578.06;4495046;31;34063;-68
2022/10/18 07:18:48;;;;;;;3.15;2.90;;;;;;;15.43;65.12;100585.03;4496199;31;35072;-68
2022/10/18 07:21:23;;;;;;;2.55;2.35;;;;;;;15.46;65.29;100577.09;4489432;31;34407;-70
2022/10/18 07:23:56;;;;;;;2.90;2.65;;;;;;;15.77;62.12;100575.03;4498023;31;35043;-68
2022/10/18 07:26:27;;;;;;;3.22;3.03;;;;;;;15.77;61.89;100564.53;4493955;31;33997;-70
2022/10/18 07:29:00;;;;;;;3.80;3.10;;;;;;;15.92;61.77;100560.84;4490852;31;36064;-70
2022/10/18 07:31:29;;;;;;;2.17;2.08;;;;;;;16.18;61.27;100556.97;4499622;31;34496;-69
2022/10/18 07:33:57;;;;;;;2.97;2.72;;;;;;;16.08;62.21;100557.12;4490858;31;33531;-68
2022/10/18 07:36:26;;;;;;;2.80;2.33;;;;;;;16.49;61.39;100554.78;4494534;31;34058;-69
2022/10/18 07:38:54;;;;;;;3.10;2.85;;;;;;;16.72;59.68;100557.03;4497229;31;34997;-70
2022/10/18 07:41:27;;;;;;;2.03;1.87;;;;;;;16.65;61.03;100560.66;4489072;31;34553;-69
2022/10/18 07:43:56;;;;;;;2.08;1.87;;;;;;;16.78;61.92;100561.31;4497734;31;32595;-68
2022/10/18 07:46:25;;;;;;;2.62;2.30;;;;;;;17.42;60.71;100560.19;4493970;31;33615;-68
2022/10/18 07:48:53;;;;;;;2.85;1.83;;;;;;;17.24;60.53;100564.06;4491436;31;35092;-70
2022/10/18 07:51:22;;;;;;;2.72;2.42;;;;;;;17.32;60.57;100565.66;4499103;31;35355;-67
2022/10/18 07:53:53;;;;;;;6.72;2.05;;;;;;;17.63;59.68;100569.44;4490253;31;33715;-67
2022/10/18 07:56:22;;;;;;;1.80;1.70;;;;;;;17.98;55.32;100564.34;4494715;31;34854;-67
2022/10/18 07:58:55;;;;;;;3.05;2.83;;;;;;;18.77;51.90;100561.63;4497020;31;34041;-69
2022/10/18 08:01:25;;;;;;;2.58;2.00;;;;;;;18.24;50.95;100561.12;4488881;31;35300;-72
2022/10/18 08:03:54;;;;;;;1.75;1.65;;;;;;;18.21;52.21;100558.56;4497875;31;33632;-72
2022/10/18 08:06:22;;;;;;;5.65;3.05;;;;;;;18.71;50.79;100556.50;4493394;31;34062;-71
2022/10/18 08:08:51;;;;;;;1.20;1.12;;;;;;;19.19;46.71;100551.81;4491391;31;34918;-66
2022/10/18 08:11:22;;;;;;;2.10;2.00;;;;;;;19.04;50.47;100540.75;4498930;31;35276;-71
2022/10/18 08:13:51;;;;;;;1.58;1.48;;;;;;;19.49;47.09;100542.19;4489937;31;32722;-71
2022/10/18 08:16:27;;;;;;;3.60;1.83;;;;;;;19.29;44.95;100538.31;4494795;31;34114;-70
2022/10/18 08:18:57;;;;;;;3.20;2.28;;;;;;;19.54;48.01;100537.63;4497054;31;35084;-73
2022/10/18 08:21:25;;;;;;;9.00;1.95;;;;;;;19.95;47.53;100530.28;4488631;31;34174;-72
2022/10/18 08:23:53;;;;;;;1.73;1.62;;;;;;;20.32;44.16;100526.50;4497234;31;33424;-69
2022/10/18 08:26:22;;;;;;;5.78;2.87;;;;;;;20.55;43.14;100524.87;4493254;31;34181;-68
2022/10/18 08:28:52;;;;;;;3.33;1.95;;;;;;;21.16;43.97;100530.75;4490935;31;34015;-67
2022/10/18 08:31:36;;;;;;;2.10;1.75;;;;;;;21.16;40.11;100525.47;4498910;31;34332;-69
2022/10/18 08:34:04;;;;;;;2.10;1.87;;;;;;;21.80;39.81;100517.88;4491324;31;34341;-71
2022/10/18 08:36:33;;;;;;;3.30;2.95;;;;;;;21.85;40.95;100515.88;4493045;31;34031;-69
2022/10/18 08:39:02;;;;;;;1.90;1.80;;;;;;;22.34;39.60;100513.97;4497237;31;35273;-71
2022/10/18 08:41:36;;;;;;;3.12;2.83;;;;;;;22.77;38.08;100516.66;4488779;31;33590;-69
2022/10/18 08:44:14;;;;;;;2.53;2.12;;;;;;;23.10;37.78;100509.00;4495043;31;33626;-68
2022/10/18 08:46:47;;;;;;;0.93;0.88;;;;;;;23.17;40.71;100509.62;4495739;31;34035;-67
2022/10/18 08:49:36;;;;;;;2.58;2.03;;;;;;;23.29;39.07;100511.72;4487665;31;35152;-69
2022/10/18 08:52:31;;;;;;;4.32;1.40;;;;;;;24.13;34.27;100501.66;4496375;31;35279;-70
2022/10/18 08:55:01;;;;;;;3.75;1.25;;;;;;;23.80;36.60;100497.00;4497134;31;33478;-67
2022/10/18 08:57:30;;;;;;;1.45;1.35;;;;;;;23.96;37.88;100488.28;4488448;31;33285;-68
2022/10/18 09:00:01;;;;;;;1.85;1.70;;;;;;;24.81;32.01;100492.97;4496712;31;35145;-67
2022/10/18 09:02:41;;;;;;;2.58;2.17;;;;;;;24.74;33.03;100481.78;4492616;31;34452;-67
2022/10/18 09:05:27;;;;;;;1.23;1.12;;;;;;;25.34;31.80;100483.12;4488427;31;33555;-68
2022/10/18 09:08:15;;;;;;;1.08;0.75;;;;;;;26.33;29.75;100482.97;4497690;31;35059;-69
2022/10/18 09:11:29;;;;;;;1.12;1.02;;;;;;;25.88;29.93;100477.50;4486288;32;35751;-70
2022/10/18 09:14:07;;;;;;;2.05;1.85;;;;;;;25.82;31.23;100477.81;4466504;31;35205;-69
2022/10/18 09:17:10;;;;;;;2.22;1.75;;;;;;;26.64;28.29;100477.56;4492939;31;33649;-72
2022/10/18 09:19:56;;;;;;;1.33;1.23;;;;;;;26.54;27.97;100476.38;4471674;31;33734;-71
2022/10/18 09:22:42;;;;;;;2.47;2.22;;;;;;;26.80;29.01;100471.31;4486176;31;303793;-70
2022/10/18 09:25:48;;;;;;;5.03;2.97;;;;;;;27.55;28.47;100464.03;4496643;31;34686;-72
2022/10/18 09:28:34;;;;;;;3.10;1.27;;;;;;;26.98;25.61;100470.19;4484520;32;33440;-71
2022/10/18 09:31:05;;;;;;;2.28;1.60;;;;;;;27.10;27.20;100457.87;4495484;31;34492;-73
2022/10/18 09:33:41;;;;;;;2.03;1.23;;;;;;;26.73;27.13;100456.63;4488465;31;35088;-70
2022/10/18 09:36:15;;;;;;;1.05;1.02;;;;;;;27.02;27.49;100450.34;4496242;31;34508;-70
2022/10/18 09:38:47;;;;;;;1.90;1.58;;;;;;;27.60;27.55;100451.22;4493180;31;33562;-70
2022/10/18 09:41:39;;;;;;;3.08;2.08;;;;;;;27.79;27.78;100445.50;4487883;31;34038;-72
2022/10/18 09:44:08;;;;;;;1.35;1.25;;;;;;;27.32;25.80;100452.09;4489359;31;35145;-72
2022/10/18 09:46:40;;;;;;;0.60;0.60;;;;;;;27.89;25.52;100444.94;4494364;31;33338;-71
2022/10/18 09:49:25;;;;;;;2.95;2.58;;;;;;;27.10;26.25;100446.34;4494900;31;33423;-70
2022/10/18 09:52:04;;;;;;;1.23;1.15;;;;;;;27.62;25.86;100441.25;4488351;31;34539;-69
2022/10/18 09:54:56;;;;;;;1.17;1.10;;;;;;;27.66;27.97;100436.56;4494209;31;35982;-72
2022/10/18 09:57:30;;;;;;;2.05;1.55;;;;;;;27.65;26.91;100432.16;4497876;31;34454;-70
2022/10/18 09:59:59;;;;;;;2.08;1.70;;;;;;;27.40;27.09;100439.09;4488115;31;33352;-70
2022/10/18 10:02:27;;;;;;;0.70;0.70;;;;;;;28.38;25.32;100436.34;4494020;31;34979;-72
2022/10/18 10:04:56;;;;;;;1.87;1.40;;;;;;;27.13;26.02;100430.13;4494197;31;35949;-71
2022/10/18 10:07:33;;;;;;;2.08;1.80;;;;;;;27.21;27.69;100434.03;4488906;31;34494;-72
2022/10/18 10:10:32;;;;;;;0.90;0.85;;;;;;;27.21;27.40;100423.34;4488606;31;33466;-72
2022/10/18 10:13:21;;;;;;;1.42;1.35;;;;;;;26.48;27.33;100417.97;4474970;31;33891;-71
2022/10/18 10:15:56;;;;;;;1.90;1.75;;;;;;;26.99;27.69;100415.78;4498162;31;34973;-68
2022/10/18 10:18:34;;;;;;;0.75;0.75;;;;;;;26.92;27.42;100406.44;4490982;31;35145;-68
2022/10/18 10:21:05;;;;;;;1.65;0.95;;;;;;;27.16;27.40;100408.50;4500321;31;34331;-70
2022/10/18 10:23:37;;;;;;;1.20;1.10;;;;;;;27.37;28.00;100409.87;4500142;31;33799;-70
2022/10/18 10:26:19;;;;;;;2.95;1.27;;;;;;;26.80;27.07;100401.84;4500199;31;35095;-73
2022/10/18 10:28:47;;;;;;;1.35;1.25;;;;;;;27.42;28.31;100402.44;4500656;31;35101;-69
2022/10/18 10:31:17;;;;;;;0.30;0.30;;;;;;;27.08;26.53;100400.13;4499049;31;33635;-69
2022/10/18 10:33:46;;;;;;;1.25;1.15;;;;;;;26.62;28.85;100394.00;4501227;31;33923;-70
2022/10/18 10:36:19;;;;;;;1.42;1.33;;;;;;;27.06;26.79;100386.84;4501067;31;35047;-69
2022/10/18 10:39:08;;;;;;;1.83;1.40;;;;;;;26.63;28.72;100386.84;4501216;31;35273;-69
2022/10/18 10:41:37;;;;;;;2.42;1.52;;;;;;;26.87;27.87;100382.66;4501164;31;34261;-69
2022/10/18 10:44:15;;;;;;;1.08;0.93;;;;;;;26.47;27.79;100376.19;4499841;31;34917;-73
2022/10/18 10:46:43;;;;;;;1.58;1.48;;;;;;;27.08;27.61;100368.06;4500060;31;34896;-69
2022/10/18 10:49:37;;;;;;;0.75;0.75;;;;;;;27.39;27.56;100366.97;4502917;31;35278;-69
2022/10/18 10:52:23;;;;;;;0.70;0.70;;;;;;;27.94;25.26;100368.72;4497328;31;33383;-69
2022/10/18 10:54:56;;;;;;;4.50;1.52;;;;;;;27.08;26.19;100355.53;4502945;31;34775;-69
2022/10/18 10:57:49;;;;;;;1.70;1.27;;;;;;;26.33;27.77;100360.13;4502764;31;34795;-70
2022/10/18 11:00:33;;;;;;;3.60;2.25;;;;;;;25.74;27.73;100360.88;4501766;31;35105;-70
2022/10/18 11:03:15;;;;;;;0.75;0.75;;;;;;;25.56;28.18;100348.63;4503086;31;34237;-69
2022/10/18 11:05:59;;;;;;;2.65;1.50;;;;;;;26.47;29.40;100352.16;4503077;31;34986;-70
2022/10/18 11:08:35;;;;;;;2.62;2.12;;;;;;;27.83;25.91;100340.91;4502864;31;34941;-69
2022/10/18 11:11:26;;;;;;;22.33;1.62;;;;;;;28.18;24.52;100350.16;4501659;31;35239;-69
2022/10/18 11:14:03;;;;;;;0.80;0.80;;;;;;;28.44;25.15;100344.81;4503154;31;34142;-69
2022/10/18 11:17:11;;;;;;;1.10;1.00;;;;;;;27.66;25.69;100337.56;4502213;31;33999;-69
2022/10/18 11:20:04;;;;;;;0.70;0.70;;;;;;;28.09;25.28;100336.53;4501671;31;35209;-70
2022/10/18 11:22:38;;;;;;;1.40;1.30;;;;;;;27.71;25.26;100327.41;4502666;31;35284;-69
2022/10/18 11:25:13;;;;;;;0.60;0.57;;;;;;;28.07;25.97;100325.06;4501726;31;33754;-70
2022/10/18 11:27:59;;;;;;;1.67;1.25;;;;;;;28.47;27.25;100333.88;4502729;31;34052;-70
2022/10/18 11:30:33;;;;;;;0.43;0.43;;;;;;;28.52;24.72;100321.03;4502599;31;35059;-70
2022/10/18 11:33:33;;;;;;;2.05;1.45;;;;;;;29.25;24.70;100319.44;4502655;31;34485;-69
2022/10/18 11:36:32;;;;;;;1.48;0.95;;;;;;;29.07;24.10;100310.88;4502616;31;34274;-69
2022/10/18 11:39:31;;;;;;;0.82;0.80;;;;;;;28.67;24.22;100302.19;4501482;31;32466;-70
2022/10/18 11:42:07;;;;;;;10.73;0.90;;;;;;;28.60;25.58;100300.91;4502560;31;34894;-70
2022/10/18 11:44:44;;;;;;;0.30;0.30;;;;;;;28.33;24.01;100294.66;4502576;31;35096;-70
2022/10/18 11:47:48;;;;;;;0.62;0.60;;;;;;;27.83;24.21;100290.06;4501464;31;33552;-69
2022/10/18 11:50:25;;;;;;;0.80;0.80;;;;;;;26.75;25.63;100297.06;4494842;31;34014;-70
2022/10/18 11:53:02;;;;;;;0.50;0.50;;;;;;;25.09;26.50;100292.50;4502483;31;35873;-70
2022/10/18 11:55:38;;;;;;;0.35;0.35;;;;;;;24.93;27.36;100289.81;4502503;31;35283;-70
2022/10/18 11:58:18;;;;;;;0.40;0.40;;;;;;;24.55;28.85;100283.94;4501091;31;34442;-70